sensor_id;sensor_type;location;lat;lon;timestamp;temperature;humidity
20654;DHT22;21083;50.898;4.902;2023-12-22T00:00:02;9.10;99.90
20654;DHT22;21083;50.898;4.902;2023-12-22T00:02:30;9.30;99.90
20654;DHT22;21083;50.898;4.902;2023-12-22T00:04:57;9.30;99.90
20654;DHT22;21083;50.898;4.902;2023-12-22T00:07:24;9.40;99.90
20654;DHT22;21083;50.898;4.902;2023-12-22T00:09:52;9.40;99.90
20654;DHT22;21083;50.898;4.902;2023-12-22T00:12:19;9.50;99.90
20654;DHT22;21083;50.898;4.902;2023-12-22T00:14:46;9.50;99.90
20654;DHT22;21083;50.898;4.902;2023-12-22T00:17:13;9.50;99.90
20654;DHT22;21083;50.898;4.902;2023-12-22T00:19:40;9.60;99.90
20654;DHT22;21083;50.898;4.902;2023-12-22T00:22:08;9.50;99.90
20654;DHT22;21083;50.898;4.902;2023-12-22T00:24:35;9.60;99.90
20654;DHT22;21083;50.898;4.902;2023-12-22T00:27:08;9.60;99.90
20654;DHT22;21083;50.898;4.902;2023-12-22T00:29:35;9.60;99.90
20654;DHT22;21083;50.898;4.902;2023-12-22T00:32:03;9.70;99.90
20654;DHT22;21083;50.898;4.902;2023-12-22T00:34:30;9.60;99.90
20654;DHT22;21083;50.898;4.902;2023-12-22T00:36:57;9.70;99.90
20654;DHT22;21083;50.898;4.902;2023-12-22T00:39:25;9.60;99.90
20654;DHT22;21083;50.898;4.902;2023-12-22T00:41:52;9.70;99.90
20654;DHT22;21083;50.898;4.902;2023-12-22T00:44:20;9.70;99.90
20654;DHT22;21083;50.898;4.902;2023-12-22T00:46:47;9.70;99.90
20654;DHT22;21083;50.898;4.902;2023-12-22T00:49:14;9.70;99.90
20654;DHT22;21083;50.898;4.902;2023-12-22T00:51:41;9.80;99.90
20654;DHT22;21083;50.898;4.902;2023-12-22T00:54:08;9.80;99.90
20654;DHT22;21083;50.898;4.902;2023-12-22T00:56:35;9.80;99.90
20654;DHT22;21083;50.898;4.902;2023-12-22T00:59:02;9.80;99.90
20654;DHT22;21083;50.898;4.902;2023-12-22T01:01:31;9.70;99.90
20654;DHT22;21083;50.898;4.902;2023-12-22T01:03:58;9.60;99.90
20654;DHT22;21083;50.898;4.902;2023-12-22T01:06:25;9.60;99.90
20654;DHT22;21083;50.898;4.902;2023-12-22T01:08:51;9.60;99.90
20654;DHT22;21083;50.898;4.902;2023-12-22T01:11:18;9.60;99.90
20654;DHT22;21083;50.898;4.902;2023-12-22T01:13:45;9.60;99.90
20654;DHT22;21083;50.898;4.902;2023-12-22T01:16:12;9.60;99.90
20654;DHT22;21083;50.898;4.902;2023-12-22T01:18:42;9.60;99.90
20654;DHT22;21083;50.898;4.902;2023-12-22T01:21:10;9.50;99.90
20654;DHT22;21083;50.898;4.902;2023-12-22T01:23:37;9.50;99.90
20654;DHT22;21083;50.898;4.902;2023-12-22T01:26:03;9.40;99.90
20654;DHT22;21083;50.898;4.902;2023-12-22T01:28:30;9.40;99.90
20654;DHT22;21083;50.898;4.902;2023-12-22T01:30:57;9.30;99.90
20654;DHT22;21083;50.898;4.902;2023-12-22T01:33:24;9.30;99.90
20654;DHT22;21083;50.898;4.902;2023-12-22T01:35:53;9.40;99.90
20654;DHT22;21083;50.898;4.902;2023-12-22T01:38:20;9.30;99.90
20654;DHT22;21083;50.898;4.902;2023-12-22T01:40:47;9.10;99.90
20654;DHT22;21083;50.898;4.902;2023-12-22T01:43:14;9.00;99.90
20654;DHT22;21083;50.898;4.902;2023-12-22T01:45:42;9.00;99.90
20654;DHT22;21083;50.898;4.902;2023-12-22T01:48:10;9.00;99.90
20654;DHT22;21083;50.898;4.902;2023-12-22T01:50:37;9.00;99.90
20654;DHT22;21083;50.898;4.902;2023-12-22T01:53:06;8.90;99.90
20654;DHT22;21083;50.898;4.902;2023-12-22T01:55:34;8.90;99.90
20654;DHT22;21083;50.898;4.902;2023-12-22T01:58:03;8.80;99.90
20654;DHT22;21083;50.898;4.902;2023-12-22T02:00:30;8.70;99.90
20654;DHT22;21083;50.898;4.902;2023-12-22T02:02:57;8.70;99.90
20654;DHT22;21083;50.898;4.902;2023-12-22T02:05:24;8.70;99.90
20654;DHT22;21083;50.898;4.902;2023-12-22T02:07:57;8.70;99.90
20654;DHT22;21083;50.898;4.902;2023-12-22T02:10:26;8.80;99.90
20654;DHT22;21083;50.898;4.902;2023-12-22T02:12:53;8.80;99.90
20654;DHT22;21083;50.898;4.902;2023-12-22T02:15:26;8.80;99.90
20654;DHT22;21083;50.898;4.902;2023-12-22T02:18:02;8.80;99.90
20654;DHT22;21083;50.898;4.902;2023-12-22T02:20:31;8.90;99.90
20654;DHT22;21083;50.898;4.902;2023-12-22T02:23:00;8.90;99.90
20654;DHT22;21083;50.898;4.902;2023-12-22T02:25:27;9.00;99.90
20654;DHT22;21083;50.898;4.902;2023-12-22T02:27:57;9.00;99.90
20654;DHT22;21083;50.898;4.902;2023-12-22T02:30:28;9.10;99.90
20654;DHT22;21083;50.898;4.902;2023-12-22T02:33:00;9.10;99.90
20654;DHT22;21083;50.898;4.902;2023-12-22T02:35:30;9.10;99.90
20654;DHT22;21083;50.898;4.902;2023-12-22T02:37:58;9.10;99.90
20654;DHT22;21083;50.898;4.902;2023-12-22T02:40:27;9.20;99.90
20654;DHT22;21083;50.898;4.902;2023-12-22T02:42:54;9.20;99.90
20654;DHT22;21083;50.898;4.902;2023-12-22T02:45:21;9.20;99.90
20654;DHT22;21083;50.898;4.902;2023-12-22T02:47:49;9.20;99.90
20654;DHT22;21083;50.898;4.902;2023-12-22T02:50:17;9.30;99.90
20654;DHT22;21083;50.898;4.902;2023-12-22T02:52:44;9.30;99.90
20654;DHT22;21083;50.898;4.902;2023-12-22T02:55:11;9.30;99.90
20654;DHT22;21083;50.898;4.902;2023-12-22T02:57:39;9.30;99.90
20654;DHT22;21083;50.898;4.902;2023-12-22T03:00:07;9.30;99.90
20654;DHT22;21083;50.898;4.902;2023-12-22T03:02:34;9.30;99.90
20654;DHT22;21083;50.898;4.902;2023-12-22T03:05:01;9.30;99.90
20654;DHT22;21083;50.898;4.902;2023-12-22T03:07:28;9.30;99.90
20654;DHT22;21083;50.898;4.902;2023-12-22T03:09:55;9.30;99.90
20654;DHT22;21083;50.898;4.902;2023-12-22T03:12:22;9.30;99.90
20654;DHT22;21083;50.898;4.902;2023-12-22T03:14:50;9.30;99.90
20654;DHT22;21083;50.898;4.902;2023-12-22T03:17:17;9.30;99.90
20654;DHT22;21083;50.898;4.902;2023-12-22T03:19:44;9.40;99.90
20654;DHT22;21083;50.898;4.902;2023-12-22T03:22:11;9.50;99.90
20654;DHT22;21083;50.898;4.902;2023-12-22T03:24:38;9.50;99.90
20654;DHT22;21083;50.898;4.902;2023-12-22T03:27:05;9.40;99.90
20654;DHT22;21083;50.898;4.902;2023-12-22T03:29:32;9.50;99.90
20654;DHT22;21083;50.898;4.902;2023-12-22T03:32:00;9.40;99.90
20654;DHT22;21083;50.898;4.902;2023-12-22T03:34:27;9.40;99.90
20654;DHT22;21083;50.898;4.902;2023-12-22T03:36:54;9.40;99.90
20654;DHT22;21083;50.898;4.902;2023-12-22T03:39:21;9.40;99.90
20654;DHT22;21083;50.898;4.902;2023-12-22T03:41:48;9.40;99.90
20654;DHT22;21083;50.898;4.902;2023-12-22T03:44:15;9.40;99.90
20654;DHT22;21083;50.898;4.902;2023-12-22T03:46:42;9.40;99.90
20654;DHT22;21083;50.898;4.902;2023-12-22T03:49:11;9.40;99.90
20654;DHT22;21083;50.898;4.902;2023-12-22T03:51:38;9.40;99.90
20654;DHT22;21083;50.898;4.902;2023-12-22T03:54:07;9.40;99.90
20654;DHT22;21083;50.898;4.902;2023-12-22T03:56:34;9.30;99.90
20654;DHT22;21083;50.898;4.902;2023-12-22T03:59:01;9.30;99.90
20654;DHT22;21083;50.898;4.902;2023-12-22T04:01:28;9.30;99.90
20654;DHT22;21083;50.898;4.902;2023-12-22T04:03:55;9.30;99.90
20654;DHT22;21083;50.898;4.902;2023-12-22T04:06:23;9.20;99.90
20654;DHT22;21083;50.898;4.902;2023-12-22T04:08:50;9.30;99.90
20654;DHT22;21083;50.898;4.902;2023-12-22T04:11:17;9.30;99.90
20654;DHT22;21083;50.898;4.902;2023-12-22T04:13:44;9.20;99.90
20654;DHT22;21083;50.898;4.902;2023-12-22T04:16:11;9.20;99.90
20654;DHT22;21083;50.898;4.902;2023-12-22T04:18:38;9.20;99.90
20654;DHT22;21083;50.898;4.902;2023-12-22T04:21:05;9.30;99.90
20654;DHT22;21083;50.898;4.902;2023-12-22T04:23:33;9.30;99.90
20654;DHT22;21083;50.898;4.902;2023-12-22T04:26:02;9.30;99.90
20654;DHT22;21083;50.898;4.902;2023-12-22T04:28:29;9.30;99.90
20654;DHT22;21083;50.898;4.902;2023-12-22T04:30:56;9.30;99.90
20654;DHT22;21083;50.898;4.902;2023-12-22T04:33:24;9.20;99.90
20654;DHT22;21083;50.898;4.902;2023-12-22T04:35:51;9.20;99.90
20654;DHT22;21083;50.898;4.902;2023-12-22T04:38:18;9.20;99.90
20654;DHT22;21083;50.898;4.902;2023-12-22T04:40:46;9.10;99.90
20654;DHT22;21083;50.898;4.902;2023-12-22T04:43:13;9.10;99.90
20654;DHT22;21083;50.898;4.902;2023-12-22T04:45:40;9.10;99.90
20654;DHT22;21083;50.898;4.902;2023-12-22T04:48:07;9.00;99.90
20654;DHT22;21083;50.898;4.902;2023-12-22T04:50:34;9.10;99.90
20654;DHT22;21083;50.898;4.902;2023-12-22T04:53:01;9.10;99.90
20654;DHT22;21083;50.898;4.902;2023-12-22T04:55:28;9.20;99.90
20654;DHT22;21083;50.898;4.902;2023-12-22T04:57:56;9.20;99.90
20654;DHT22;21083;50.898;4.902;2023-12-22T05:00:24;9.10;99.90
20654;DHT22;21083;50.898;4.902;2023-12-22T05:02:51;9.00;99.90
20654;DHT22;21083;50.898;4.902;2023-12-22T05:05:18;9.00;99.90
20654;DHT22;21083;50.898;4.902;2023-12-22T05:07:44;9.00;99.90
20654;DHT22;21083;50.898;4.902;2023-12-22T05:10:11;9.00;99.90
20654;DHT22;21083;50.898;4.902;2023-12-22T05:12:38;9.10;99.90
20654;DHT22;21083;50.898;4.902;2023-12-22T05:15:07;9.10;99.90
20654;DHT22;21083;50.898;4.902;2023-12-22T05:17:34;9.00;99.90
20654;DHT22;21083;50.898;4.902;2023-12-22T05:20:02;9.00;99.90
20654;DHT22;21083;50.898;4.902;2023-12-22T05:22:29;9.00;99.90
20654;DHT22;21083;50.898;4.902;2023-12-22T05:24:58;9.00;99.90
20654;DHT22;21083;50.898;4.902;2023-12-22T05:27:27;9.00;99.90
20654;DHT22;21083;50.898;4.902;2023-12-22T05:29:54;9.00;99.90
20654;DHT22;21083;50.898;4.902;2023-12-22T05:32:22;8.90;99.90
20654;DHT22;21083;50.898;4.902;2023-12-22T05:34:49;8.80;99.90
20654;DHT22;21083;50.898;4.902;2023-12-22T05:37:17;8.80;99.90
20654;DHT22;21083;50.898;4.902;2023-12-22T05:39:44;8.90;99.90
20654;DHT22;21083;50.898;4.902;2023-12-22T05:42:11;9.00;99.90
20654;DHT22;21083;50.898;4.902;2023-12-22T05:44:38;9.10;99.90
20654;DHT22;21083;50.898;4.902;2023-12-22T05:47:05;9.00;99.90
20654;DHT22;21083;50.898;4.902;2023-12-22T05:49:33;8.90;99.90
20654;DHT22;21083;50.898;4.902;2023-12-22T05:52:01;9.00;99.90
20654;DHT22;21083;50.898;4.902;2023-12-22T05:54:27;8.90;99.90
20654;DHT22;21083;50.898;4.902;2023-12-22T05:56:54;9.00;99.90
20654;DHT22;21083;50.898;4.902;2023-12-22T05:59:21;9.00;99.90
20654;DHT22;21083;50.898;4.902;2023-12-22T06:01:53;9.10;99.90
20654;DHT22;21083;50.898;4.902;2023-12-22T06:04:20;9.10;99.90
20654;DHT22;21083;50.898;4.902;2023-12-22T06:06:48;9.00;99.90
20654;DHT22;21083;50.898;4.902;2023-12-22T06:09:15;9.10;99.90
20654;DHT22;21083;50.898;4.902;2023-12-22T06:11:43;9.10;99.90
20654;DHT22;21083;50.898;4.902;2023-12-22T06:14:10;9.20;99.90
20654;DHT22;21083;50.898;4.902;2023-12-22T06:16:39;9.20;99.90
20654;DHT22;21083;50.898;4.902;2023-12-22T06:19:06;9.20;99.90
20654;DHT22;21083;50.898;4.902;2023-12-22T06:21:33;9.20;99.90
20654;DHT22;21083;50.898;4.902;2023-12-22T06:24:01;9.20;99.90
20654;DHT22;21083;50.898;4.902;2023-12-22T06:26:28;9.10;99.90
20654;DHT22;21083;50.898;4.902;2023-12-22T06:28:56;9.20;99.90
20654;DHT22;21083;50.898;4.902;2023-12-22T06:31:23;9.10;99.90
20654;DHT22;21083;50.898;4.902;2023-12-22T06:33:52;9.20;99.90
20654;DHT22;21083;50.898;4.902;2023-12-22T06:36:20;9.20;99.90
20654;DHT22;21083;50.898;4.902;2023-12-22T06:38:47;9.30;99.90
20654;DHT22;21083;50.898;4.902;2023-12-22T06:41:23;9.20;99.90
20654;DHT22;21083;50.898;4.902;2023-12-22T06:43:50;9.30;99.90
20654;DHT22;21083;50.898;4.902;2023-12-22T06:46:18;9.30;99.90
20654;DHT22;21083;50.898;4.902;2023-12-22T06:48:45;9.20;99.90
20654;DHT22;21083;50.898;4.902;2023-12-22T06:51:19;9.20;99.90
20654;DHT22;21083;50.898;4.902;2023-12-22T06:53:46;9.10;99.90
20654;DHT22;21083;50.898;4.902;2023-12-22T06:56:17;9.10;99.90
20654;DHT22;21083;50.898;4.902;2023-12-22T06:58:48;9.10;99.90
20654;DHT22;21083;50.898;4.902;2023-12-22T07:01:18;9.20;99.90
20654;DHT22;21083;50.898;4.902;2023-12-22T07:03:47;9.10;99.90
20654;DHT22;21083;50.898;4.902;2023-12-22T07:06:15;9.20;99.90
20654;DHT22;21083;50.898;4.902;2023-12-22T07:08:43;9.10;99.90
20654;DHT22;21083;50.898;4.902;2023-12-22T07:11:20;9.10;99.90
20654;DHT22;21083;50.898;4.902;2023-12-22T07:13:48;9.10;99.90
20654;DHT22;21083;50.898;4.902;2023-12-22T07:16:15;9.10;99.90
20654;DHT22;21083;50.898;4.902;2023-12-22T07:18:42;9.10;99.90
20654;DHT22;21083;50.898;4.902;2023-12-22T07:21:16;9.10;99.90
20654;DHT22;21083;50.898;4.902;2023-12-22T07:23:43;9.10;99.90
20654;DHT22;21083;50.898;4.902;2023-12-22T07:26:10;9.10;99.90
20654;DHT22;21083;50.898;4.902;2023-12-22T07:28:37;9.10;99.90
20654;DHT22;21083;50.898;4.902;2023-12-22T07:31:06;9.00;99.90
20654;DHT22;21083;50.898;4.902;2023-12-22T07:33:33;9.00;99.90
20654;DHT22;21083;50.898;4.902;2023-12-22T07:36:00;9.00;99.90
20654;DHT22;21083;50.898;4.902;2023-12-22T07:38:28;8.90;99.90
20654;DHT22;21083;50.898;4.902;2023-12-22T07:40:55;8.90;99.90
20654;DHT22;21083;50.898;4.902;2023-12-22T07:43:22;8.90;99.90
20654;DHT22;21083;50.898;4.902;2023-12-22T07:45:54;8.90;99.90
20654;DHT22;21083;50.898;4.902;2023-12-22T07:48:24;9.00;99.90
20654;DHT22;21083;50.898;4.902;2023-12-22T07:50:51;8.90;99.90
20654;DHT22;21083;50.898;4.902;2023-12-22T07:53:18;8.80;99.90
20654;DHT22;21083;50.898;4.902;2023-12-22T07:55:46;8.70;99.90
20654;DHT22;21083;50.898;4.902;2023-12-22T07:58:13;8.90;99.90
20654;DHT22;21083;50.898;4.902;2023-12-22T08:00:41;8.90;99.90
20654;DHT22;21083;50.898;4.902;2023-12-22T08:03:09;9.00;99.90
20654;DHT22;21083;50.898;4.902;2023-12-22T08:05:38;9.10;99.90
20654;DHT22;21083;50.898;4.902;2023-12-22T08:08:05;9.00;99.90
20654;DHT22;21083;50.898;4.902;2023-12-22T08:10:32;9.00;99.90
20654;DHT22;21083;50.898;4.902;2023-12-22T08:12:59;9.00;99.90
20654;DHT22;21083;50.898;4.902;2023-12-22T08:15:26;9.00;99.90
20654;DHT22;21083;50.898;4.902;2023-12-22T08:17:53;9.10;99.90
20654;DHT22;21083;50.898;4.902;2023-12-22T08:20:20;9.10;99.90
20654;DHT22;21083;50.898;4.902;2023-12-22T08:22:50;9.00;99.90
20654;DHT22;21083;50.898;4.902;2023-12-22T08:25:17;9.00;99.90
20654;DHT22;21083;50.898;4.902;2023-12-22T08:27:45;9.10;99.90
20654;DHT22;21083;50.898;4.902;2023-12-22T08:30:13;9.10;99.90
20654;DHT22;21083;50.898;4.902;2023-12-22T08:32:40;9.00;99.90
20654;DHT22;21083;50.898;4.902;2023-12-22T08:35:08;9.10;99.90
20654;DHT22;21083;50.898;4.902;2023-12-22T08:37:35;9.00;99.90
20654;DHT22;21083;50.898;4.902;2023-12-22T08:40:05;9.10;99.90
20654;DHT22;21083;50.898;4.902;2023-12-22T08:42:32;9.10;99.90
20654;DHT22;21083;50.898;4.902;2023-12-22T08:44:59;9.20;99.90
20654;DHT22;21083;50.898;4.902;2023-12-22T08:47:28;9.30;99.90
20654;DHT22;21083;50.898;4.902;2023-12-22T08:49:55;9.20;99.90
20654;DHT22;21083;50.898;4.902;2023-12-22T08:52:23;9.30;99.90
20654;DHT22;21083;50.898;4.902;2023-12-22T08:54:50;9.30;99.90
20654;DHT22;21083;50.898;4.902;2023-12-22T08:57:18;9.30;99.90
20654;DHT22;21083;50.898;4.902;2023-12-22T08:59:45;9.30;99.90
20654;DHT22;21083;50.898;4.902;2023-12-22T09:02:12;9.30;99.90
20654;DHT22;21083;50.898;4.902;2023-12-22T09:04:39;9.30;99.90
20654;DHT22;21083;50.898;4.902;2023-12-22T09:07:08;9.40;99.90
20654;DHT22;21083;50.898;4.902;2023-12-22T09:09:35;9.40;99.90
20654;DHT22;21083;50.898;4.902;2023-12-22T09:12:03;9.40;99.90
20654;DHT22;21083;50.898;4.902;2023-12-22T09:14:31;9.50;99.90
20654;DHT22;21083;50.898;4.902;2023-12-22T09:16:58;9.40;99.90
20654;DHT22;21083;50.898;4.902;2023-12-22T09:19:26;9.50;99.90
20654;DHT22;21083;50.898;4.902;2023-12-22T09:21:53;9.60;99.90
20654;DHT22;21083;50.898;4.902;2023-12-22T09:24:20;9.60;99.90
20654;DHT22;21083;50.898;4.902;2023-12-22T09:26:47;9.70;99.90
20654;DHT22;21083;50.898;4.902;2023-12-22T09:29:16;9.70;99.90
20654;DHT22;21083;50.898;4.902;2023-12-22T09:31:44;9.70;99.90
20654;DHT22;21083;50.898;4.902;2023-12-22T09:34:11;9.70;99.90
20654;DHT22;21083;50.898;4.902;2023-12-22T09:36:37;9.60;99.90
20654;DHT22;21083;50.898;4.902;2023-12-22T09:39:04;9.70;99.90
20654;DHT22;21083;50.898;4.902;2023-12-22T09:41:31;9.80;99.90
20654;DHT22;21083;50.898;4.902;2023-12-22T09:43:58;9.70;99.90
20654;DHT22;21083;50.898;4.902;2023-12-22T09:46:27;9.70;99.90
20654;DHT22;21083;50.898;4.902;2023-12-22T09:48:57;9.80;99.90
20654;DHT22;21083;50.898;4.902;2023-12-22T09:51:25;9.80;99.90
20654;DHT22;21083;50.898;4.902;2023-12-22T09:53:54;9.80;99.90
20654;DHT22;21083;50.898;4.902;2023-12-22T09:56:24;9.80;99.90
20654;DHT22;21083;50.898;4.902;2023-12-22T09:58:52;9.80;99.90
20654;DHT22;21083;50.898;4.902;2023-12-22T10:01:20;9.80;99.90
20654;DHT22;21083;50.898;4.902;2023-12-22T10:03:49;9.70;99.90
20654;DHT22;21083;50.898;4.902;2023-12-22T10:06:17;9.80;99.90
20654;DHT22;21083;50.898;4.902;2023-12-22T10:08:45;9.90;99.90
20654;DHT22;21083;50.898;4.902;2023-12-22T10:11:13;9.90;99.90
20654;DHT22;21083;50.898;4.902;2023-12-22T10:13:41;9.90;99.90
20654;DHT22;21083;50.898;4.902;2023-12-22T10:16:09;9.90;99.90
20654;DHT22;21083;50.898;4.902;2023-12-22T10:18:36;9.90;99.90
20654;DHT22;21083;50.898;4.902;2023-12-22T10:21:05;9.90;99.90
20654;DHT22;21083;50.898;4.902;2023-12-22T10:23:34;9.90;99.90
20654;DHT22;21083;50.898;4.902;2023-12-22T10:26:02;9.80;99.90
20654;DHT22;21083;50.898;4.902;2023-12-22T10:28:29;9.80;99.90
20654;DHT22;21083;50.898;4.902;2023-12-22T10:30:56;9.80;99.90
20654;DHT22;21083;50.898;4.902;2023-12-22T10:33:30;9.80;99.90
20654;DHT22;21083;50.898;4.902;2023-12-22T10:35:58;9.90;99.90
20654;DHT22;21083;50.898;4.902;2023-12-22T10:38:25;9.90;99.90
20654;DHT22;21083;50.898;4.902;2023-12-22T10:40:53;9.90;99.90
20654;DHT22;21083;50.898;4.902;2023-12-22T10:43:21;10.00;99.90
20654;DHT22;21083;50.898;4.902;2023-12-22T10:45:51;10.10;99.90
20654;DHT22;21083;50.898;4.902;2023-12-22T10:48:19;10.10;99.90
20654;DHT22;21083;50.898;4.902;2023-12-22T10:50:46;10.20;99.90
20654;DHT22;21083;50.898;4.902;2023-12-22T10:53:14;10.20;99.90
20654;DHT22;21083;50.898;4.902;2023-12-22T10:55:41;10.30;99.90
20654;DHT22;21083;50.898;4.902;2023-12-22T10:58:10;10.30;99.90
20654;DHT22;21083;50.898;4.902;2023-12-22T11:00:40;10.30;99.90
20654;DHT22;21083;50.898;4.902;2023-12-22T11:03:15;10.30;99.90
20654;DHT22;21083;50.898;4.902;2023-12-22T11:05:46;10.30;99.90
20654;DHT22;21083;50.898;4.902;2023-12-22T11:08:13;10.40;99.90
20654;DHT22;21083;50.898;4.902;2023-12-22T11:10:42;10.40;99.90
20654;DHT22;21083;50.898;4.902;2023-12-22T11:13:12;10.50;99.90
20654;DHT22;21083;50.898;4.902;2023-12-22T11:15:40;10.50;99.90
20654;DHT22;21083;50.898;4.902;2023-12-22T11:18:08;10.40;99.90
20654;DHT22;21083;50.898;4.902;2023-12-22T11:20:37;10.40;99.90
20654;DHT22;21083;50.898;4.902;2023-12-22T11:23:05;10.50;99.90
20654;DHT22;21083;50.898;4.902;2023-12-22T11:25:34;10.50;99.90
20654;DHT22;21083;50.898;4.902;2023-12-22T11:28:04;10.50;99.90
20654;DHT22;21083;50.898;4.902;2023-12-22T11:30:34;10.40;99.90
20654;DHT22;21083;50.898;4.902;2023-12-22T11:33:04;10.40;99.90
20654;DHT22;21083;50.898;4.902;2023-12-22T11:35:38;10.40;99.90
20654;DHT22;21083;50.898;4.902;2023-12-22T11:38:06;10.40;99.90
20654;DHT22;21083;50.898;4.902;2023-12-22T11:40:34;10.40;99.90
20654;DHT22;21083;50.898;4.902;2023-12-22T11:43:01;10.50;99.90
20654;DHT22;21083;50.898;4.902;2023-12-22T11:45:30;10.40;99.90
20654;DHT22;21083;50.898;4.902;2023-12-22T11:48:06;10.30;99.90
20654;DHT22;21083;50.898;4.902;2023-12-22T11:50:33;10.30;99.90
20654;DHT22;21083;50.898;4.902;2023-12-22T11:53:17;10.20;99.90
20654;DHT22;21083;50.898;4.902;2023-12-22T11:55:57;10.20;99.90
20654;DHT22;21083;50.898;4.902;2023-12-22T11:58:38;10.10;99.90
20654;DHT22;21083;50.898;4.902;2023-12-22T12:01:09;10.00;99.90
20654;DHT22;21083;50.898;4.902;2023-12-22T12:03:41;10.00;99.90
20654;DHT22;21083;50.898;4.902;2023-12-22T12:06:16;10.10;99.90
20654;DHT22;21083;50.898;4.902;2023-12-22T12:08:43;10.00;99.90
20654;DHT22;21083;50.898;4.902;2023-12-22T12:11:10;10.00;99.90
20654;DHT22;21083;50.898;4.902;2023-12-22T12:13:43;10.10;99.90
20654;DHT22;21083;50.898;4.902;2023-12-22T12:16:11;10.10;99.90
20654;DHT22;21083;50.898;4.902;2023-12-22T12:18:40;10.20;99.90
20654;DHT22;21083;50.898;4.902;2023-12-22T12:21:08;10.30;99.90
20654;DHT22;21083;50.898;4.902;2023-12-22T12:23:36;10.30;99.90
20654;DHT22;21083;50.898;4.902;2023-12-22T12:26:06;10.30;99.90
20654;DHT22;21083;50.898;4.902;2023-12-22T12:28:35;10.50;99.90
20654;DHT22;21083;50.898;4.902;2023-12-22T12:31:04;10.50;99.90
20654;DHT22;21083;50.898;4.902;2023-12-22T12:33:31;10.50;99.90
20654;DHT22;21083;50.898;4.902;2023-12-22T12:36:01;10.60;99.90
20654;DHT22;21083;50.898;4.902;2023-12-22T12:38:39;10.70;99.90
20654;DHT22;21083;50.898;4.902;2023-12-22T12:41:09;10.70;99.90
20654;DHT22;21083;50.898;4.902;2023-12-22T12:43:41;10.70;99.90
20654;DHT22;21083;50.898;4.902;2023-12-22T12:46:08;10.80;99.90
20654;DHT22;21083;50.898;4.902;2023-12-22T12:48:35;10.80;99.90
20654;DHT22;21083;50.898;4.902;2023-12-22T12:51:05;10.80;99.90
20654;DHT22;21083;50.898;4.902;2023-12-22T12:53:32;10.90;99.90
20654;DHT22;21083;50.898;4.902;2023-12-22T12:55:59;10.80;99.90
20654;DHT22;21083;50.898;4.902;2023-12-22T12:58:29;10.80;99.90
20654;DHT22;21083;50.898;4.902;2023-12-22T13:01:08;10.80;99.90
20654;DHT22;21083;50.898;4.902;2023-12-22T13:03:51;10.80;99.90
20654;DHT22;21083;50.898;4.902;2023-12-22T13:06:20;10.80;99.90
20654;DHT22;21083;50.898;4.902;2023-12-22T13:08:48;10.80;99.90
20654;DHT22;21083;50.898;4.902;2023-12-22T13:11:16;10.80;99.90
20654;DHT22;21083;50.898;4.902;2023-12-22T13:13:43;10.80;99.90
20654;DHT22;21083;50.898;4.902;2023-12-22T13:16:10;10.80;99.90
20654;DHT22;21083;50.898;4.902;2023-12-22T13:18:37;10.70;99.90
20654;DHT22;21083;50.898;4.902;2023-12-22T13:21:04;10.60;99.90
20654;DHT22;21083;50.898;4.902;2023-12-22T13:23:33;10.70;99.90
20654;DHT22;21083;50.898;4.902;2023-12-22T13:26:01;10.60;99.90
20654;DHT22;21083;50.898;4.902;2023-12-22T13:28:28;10.60;99.90
20654;DHT22;21083;50.898;4.902;2023-12-22T13:30:55;10.60;99.90
20654;DHT22;21083;50.898;4.902;2023-12-22T13:33:22;10.60;99.90
20654;DHT22;21083;50.898;4.902;2023-12-22T13:35:50;10.60;99.90
20654;DHT22;21083;50.898;4.902;2023-12-22T13:38:18;10.70;99.90
20654;DHT22;21083;50.898;4.902;2023-12-22T13:40:47;10.60;99.90
20654;DHT22;21083;50.898;4.902;2023-12-22T13:43:14;10.70;99.90
20654;DHT22;21083;50.898;4.902;2023-12-22T13:45:41;10.70;99.90
20654;DHT22;21083;50.898;4.902;2023-12-22T13:48:08;10.70;99.90
20654;DHT22;21083;50.898;4.902;2023-12-22T13:50:35;10.70;99.90
20654;DHT22;21083;50.898;4.902;2023-12-22T13:53:09;10.60;99.90
20654;DHT22;21083;50.898;4.902;2023-12-22T13:55:36;10.60;99.90
20654;DHT22;21083;50.898;4.902;2023-12-22T13:58:06;10.60;99.90
20654;DHT22;21083;50.898;4.902;2023-12-22T14:00:38;10.50;99.90
20654;DHT22;21083;50.898;4.902;2023-12-22T14:03:08;10.40;99.90
20654;DHT22;21083;50.898;4.902;2023-12-22T14:05:35;10.40;99.90
20654;DHT22;21083;50.898;4.902;2023-12-22T14:08:03;10.40;99.90
20654;DHT22;21083;50.898;4.902;2023-12-22T14:10:30;10.30;99.90
20654;DHT22;21083;50.898;4.902;2023-12-22T14:12:57;10.40;99.90
20654;DHT22;21083;50.898;4.902;2023-12-22T14:15:25;10.30;99.90
20654;DHT22;21083;50.898;4.902;2023-12-22T14:17:54;10.20;99.90
20654;DHT22;21083;50.898;4.902;2023-12-22T14:20:21;10.20;99.90
20654;DHT22;21083;50.898;4.902;2023-12-22T14:22:48;10.20;99.90
20654;DHT22;21083;50.898;4.902;2023-12-22T14:25:15;10.30;99.90
20654;DHT22;21083;50.898;4.902;2023-12-22T14:27:42;10.30;99.90
20654;DHT22;21083;50.898;4.902;2023-12-22T14:30:10;10.30;99.90
20654;DHT22;21083;50.898;4.902;2023-12-22T14:32:39;10.30;99.90
20654;DHT22;21083;50.898;4.902;2023-12-22T14:35:07;10.40;99.90
20654;DHT22;21083;50.898;4.902;2023-12-22T14:37:34;10.50;99.90
20654;DHT22;21083;50.898;4.902;2023-12-22T14:40:01;10.50;99.90
20654;DHT22;21083;50.898;4.902;2023-12-22T14:42:28;10.50;99.90
20654;DHT22;21083;50.898;4.902;2023-12-22T14:44:55;10.40;99.90
20654;DHT22;21083;50.898;4.902;2023-12-22T14:47:22;10.40;99.90
20654;DHT22;21083;50.898;4.902;2023-12-22T14:49:50;10.50;99.90
20654;DHT22;21083;50.898;4.902;2023-12-22T14:52:17;10.60;99.90
20654;DHT22;21083;50.898;4.902;2023-12-22T14:54:45;10.60;99.90
20654;DHT22;21083;50.898;4.902;2023-12-22T14:57:12;10.60;99.90
20654;DHT22;21083;50.898;4.902;2023-12-22T14:59:40;10.60;99.90
20654;DHT22;21083;50.898;4.902;2023-12-22T15:02:07;10.60;99.90
20654;DHT22;21083;50.898;4.902;2023-12-22T15:04:34;10.60;99.90
20654;DHT22;21083;50.898;4.902;2023-12-22T15:07:02;10.60;99.90
20654;DHT22;21083;50.898;4.902;2023-12-22T15:09:29;10.70;99.90
20654;DHT22;21083;50.898;4.902;2023-12-22T15:11:56;10.70;99.90
20654;DHT22;21083;50.898;4.902;2023-12-22T15:14:23;10.80;99.90
20654;DHT22;21083;50.898;4.902;2023-12-22T15:16:50;10.80;99.90
20654;DHT22;21083;50.898;4.902;2023-12-22T15:19:18;10.70;99.90
20654;DHT22;21083;50.898;4.902;2023-12-22T15:21:44;10.80;99.90
20654;DHT22;21083;50.898;4.902;2023-12-22T15:24:14;10.90;99.90
20654;DHT22;21083;50.898;4.902;2023-12-22T15:26:41;11.00;99.90
20654;DHT22;21083;50.898;4.902;2023-12-22T15:29:09;10.90;99.90
20654;DHT22;21083;50.898;4.902;2023-12-22T15:31:36;10.90;99.90
20654;DHT22;21083;50.898;4.902;2023-12-22T15:34:02;10.90;99.90
20654;DHT22;21083;50.898;4.902;2023-12-22T15:36:31;10.90;99.90
20654;DHT22;21083;50.898;4.902;2023-12-22T15:38:59;10.90;99.90
20654;DHT22;21083;50.898;4.902;2023-12-22T15:41:29;10.90;99.90
20654;DHT22;21083;50.898;4.902;2023-12-22T15:43:56;11.00;99.90